sensor_id;sensor_type;location;lat;lon;timestamp;temperature;humidity
35559;DHT22;21661;50.794;-1.066;2024-01-27T00:00:06;5.60;99.90
35559;DHT22;21661;50.794;-1.066;2024-01-27T00:02:32;5.70;99.90
35559;DHT22;21661;50.794;-1.066;2024-01-27T00:04:57;5.60;99.90
35559;DHT22;21661;50.794;-1.066;2024-01-27T00:07:23;5.60;99.90
35559;DHT22;21661;50.794;-1.066;2024-01-27T00:09:50;5.60;99.90
35559;DHT22;21661;50.794;-1.066;2024-01-27T00:12:17;5.70;99.90
35559;DHT22;21661;50.794;-1.066;2024-01-27T00:14:42;5.60;99.90
35559;DHT22;21661;50.794;-1.066;2024-01-27T00:17:09;5.60;99.90
35559;DHT22;21661;50.794;-1.066;2024-01-27T00:19:34;5.60;99.90
35559;DHT22;21661;50.794;-1.066;2024-01-27T00:22:00;5.60;99.90
35559;DHT22;21661;50.794;-1.066;2024-01-27T00:24:26;5.60;99.90
35559;DHT22;21661;50.794;-1.066;2024-01-27T00:26:51;5.70;99.90
35559;DHT22;21661;50.794;-1.066;2024-01-27T00:29:17;5.60;99.90
35559;DHT22;21661;50.794;-1.066;2024-01-27T00:31:43;5.60;99.90
35559;DHT22;21661;50.794;-1.066;2024-01-27T00:34:08;5.60;99.90
35559;DHT22;21661;50.794;-1.066;2024-01-27T00:36:34;5.60;99.90
35559;DHT22;21661;50.794;-1.066;2024-01-27T00:39:03;5.50;99.90
35559;DHT22;21661;50.794;-1.066;2024-01-27T00:41:28;5.50;99.90
35559;DHT22;21661;50.794;-1.066;2024-01-27T00:43:54;5.50;99.90
35559;DHT22;21661;50.794;-1.066;2024-01-27T00:46:20;5.60;99.90
35559;DHT22;21661;50.794;-1.066;2024-01-27T00:48:45;5.60;99.90
35559;DHT22;21661;50.794;-1.066;2024-01-27T00:51:11;5.60;99.90
35559;DHT22;21661;50.794;-1.066;2024-01-27T00:53:37;5.60;99.90
35559;DHT22;21661;50.794;-1.066;2024-01-27T00:56:02;5.60;99.90
35559;DHT22;21661;50.794;-1.066;2024-01-27T00:58:28;5.60;99.90
35559;DHT22;21661;50.794;-1.066;2024-01-27T01:00:54;5.60;99.90
35559;DHT22;21661;50.794;-1.066;2024-01-27T01:03:19;5.60;99.90
35559;DHT22;21661;50.794;-1.066;2024-01-27T01:05:45;5.50;99.90
35559;DHT22;21661;50.794;-1.066;2024-01-27T01:08:11;5.50;99.90
35559;DHT22;21661;50.794;-1.066;2024-01-27T01:10:36;5.40;99.90
35559;DHT22;21661;50.794;-1.066;2024-01-27T01:13:02;5.40;99.90
35559;DHT22;21661;50.794;-1.066;2024-01-27T01:15:28;5.40;99.90
35559;DHT22;21661;50.794;-1.066;2024-01-27T01:17:54;5.50;99.90
35559;DHT22;21661;50.794;-1.066;2024-01-27T01:20:19;5.40;99.90
35559;DHT22;21661;50.794;-1.066;2024-01-27T01:22:45;5.30;99.90
35559;DHT22;21661;50.794;-1.066;2024-01-27T01:25:10;5.30;99.90
35559;DHT22;21661;50.794;-1.066;2024-01-27T01:27:36;5.30;99.90
35559;DHT22;21661;50.794;-1.066;2024-01-27T01:30:02;5.00;99.90
35559;DHT22;21661;50.794;-1.066;2024-01-27T01:32:27;5.00;99.90
35559;DHT22;21661;50.794;-1.066;2024-01-27T01:34:53;5.00;99.90
35559;DHT22;21661;50.794;-1.066;2024-01-27T01:37:18;4.90;99.90
35559;DHT22;21661;50.794;-1.066;2024-01-27T01:39:44;4.90;99.90
35559;DHT22;21661;50.794;-1.066;2024-01-27T01:42:10;4.80;99.90
35559;DHT22;21661;50.794;-1.066;2024-01-27T01:44:35;4.80;99.90
35559;DHT22;21661;50.794;-1.066;2024-01-27T01:47:01;4.80;99.90
35559;DHT22;21661;50.794;-1.066;2024-01-27T01:49:27;4.80;99.90
35559;DHT22;21661;50.794;-1.066;2024-01-27T01:51:53;4.80;99.90
35559;DHT22;21661;50.794;-1.066;2024-01-27T01:54:19;4.90;99.90
35559;DHT22;21661;50.794;-1.066;2024-01-27T01:56:44;4.90;99.90
35559;DHT22;21661;50.794;-1.066;2024-01-27T01:59:10;4.90;99.90
35559;DHT22;21661;50.794;-1.066;2024-01-27T02:01:36;4.90;99.90
35559;DHT22;21661;50.794;-1.066;2024-01-27T02:04:04;4.80;99.90
35559;DHT22;21661;50.794;-1.066;2024-01-27T02:06:29;4.90;99.90
35559;DHT22;21661;50.794;-1.066;2024-01-27T02:08:55;4.90;99.90
35559;DHT22;21661;50.794;-1.066;2024-01-27T02:11:21;5.00;99.90
35559;DHT22;21661;50.794;-1.066;2024-01-27T02:13:47;5.00;99.90
35559;DHT22;21661;50.794;-1.066;2024-01-27T02:16:13;4.90;99.90
35559;DHT22;21661;50.794;-1.066;2024-01-27T02:18:39;4.90;99.90
35559;DHT22;21661;50.794;-1.066;2024-01-27T02:21:04;4.90;99.90
35559;DHT22;21661;50.794;-1.066;2024-01-27T02:23:30;4.90;99.90
35559;DHT22;21661;50.794;-1.066;2024-01-27T02:25:55;4.90;99.90
35559;DHT22;21661;50.794;-1.066;2024-01-27T02:28:22;4.90;99.90
35559;DHT22;21661;50.794;-1.066;2024-01-27T02:30:49;4.90;99.90
35559;DHT22;21661;50.794;-1.066;2024-01-27T02:33:14;4.90;99.90
35559;DHT22;21661;50.794;-1.066;2024-01-27T02:35:40;4.90;99.90
35559;DHT22;21661;50.794;-1.066;2024-01-27T02:38:05;5.00;99.90
35559;DHT22;21661;50.794;-1.066;2024-01-27T02:40:31;5.00;99.90
35559;DHT22;21661;50.794;-1.066;2024-01-27T02:42:56;5.00;99.90
35559;DHT22;21661;50.794;-1.066;2024-01-27T02:45:22;5.00;99.90
35559;DHT22;21661;50.794;-1.066;2024-01-27T02:47:48;5.00;99.90
35559;DHT22;21661;50.794;-1.066;2024-01-27T02:50:15;4.90;99.90
35559;DHT22;21661;50.794;-1.066;2024-01-27T02:52:40;4.90;99.90
35559;DHT22;21661;50.794;-1.066;2024-01-27T02:55:06;4.80;99.90
35559;DHT22;21661;50.794;-1.066;2024-01-27T02:57:32;4.80;99.90
35559;DHT22;21661;50.794;-1.066;2024-01-27T02:59:58;4.80;99.90
35559;DHT22;21661;50.794;-1.066;2024-01-27T03:02:23;4.80;99.90
35559;DHT22;21661;50.794;-1.066;2024-01-27T03:04:49;4.70;99.90
35559;DHT22;21661;50.794;-1.066;2024-01-27T03:07:14;4.70;99.90
35559;DHT22;21661;50.794;-1.066;2024-01-27T03:09:40;4.80;99.90
35559;DHT22;21661;50.794;-1.066;2024-01-27T03:12:06;4.80;99.90
35559;DHT22;21661;50.794;-1.066;2024-01-27T03:14:33;4.80;99.90
35559;DHT22;21661;50.794;-1.066;2024-01-27T03:16:58;4.90;99.90
35559;DHT22;21661;50.794;-1.066;2024-01-27T03:19:24;4.90;99.90
35559;DHT22;21661;50.794;-1.066;2024-01-27T03:21:50;4.90;99.90
35559;DHT22;21661;50.794;-1.066;2024-01-27T03:24:15;4.80;99.90
35559;DHT22;21661;50.794;-1.066;2024-01-27T03:26:41;4.80;99.90
35559;DHT22;21661;50.794;-1.066;2024-01-27T03:29:06;4.80;99.90
35559;DHT22;21661;50.794;-1.066;2024-01-27T03:31:33;4.80;99.90
35559;DHT22;21661;50.794;-1.066;2024-01-27T03:34:02;4.70;99.90
35559;DHT22;21661;50.794;-1.066;2024-01-27T03:36:28;4.70;99.90
35559;DHT22;21661;50.794;-1.066;2024-01-27T03:38:56;4.70;99.90
35559;DHT22;21661;50.794;-1.066;2024-01-27T03:41:22;4.80;99.90
35559;DHT22;21661;50.794;-1.066;2024-01-27T03:43:47;4.80;99.90
35559;DHT22;21661;50.794;-1.066;2024-01-27T03:46:13;4.80;99.90
35559;DHT22;21661;50.794;-1.066;2024-01-27T03:48:39;4.80;99.90
35559;DHT22;21661;50.794;-1.066;2024-01-27T03:51:04;4.80;99.90
35559;DHT22;21661;50.794;-1.066;2024-01-27T03:53:31;4.80;99.90
35559;DHT22;21661;50.794;-1.066;2024-01-27T03:55:56;4.80;99.90
35559;DHT22;21661;50.794;-1.066;2024-01-27T03:58:28;4.90;99.90
35559;DHT22;21661;50.794;-1.066;2024-01-27T04:00:53;4.90;99.90
35559;DHT22;21661;50.794;-1.066;2024-01-27T04:03:19;4.80;99.90
35559;DHT22;21661;50.794;-1.066;2024-01-27T04:05:45;4.80;99.90
35559;DHT22;21661;50.794;-1.066;2024-01-27T04:08:10;4.70;99.90
35559;DHT22;21661;50.794;-1.066;2024-01-27T04:10:36;4.70;99.90
35559;DHT22;21661;50.794;-1.066;2024-01-27T04:13:02;4.60;99.90
35559;DHT22;21661;50.794;-1.066;2024-01-27T04:15:28;4.70;99.90
35559;DHT22;21661;50.794;-1.066;2024-01-27T04:17:54;4.70;99.90
35559;DHT22;21661;50.794;-1.066;2024-01-27T04:20:20;4.70;99.90
35559;DHT22;21661;50.794;-1.066;2024-01-27T04:22:45;4.70;99.90
35559;DHT22;21661;50.794;-1.066;2024-01-27T04:25:11;4.70;99.90
35559;DHT22;21661;50.794;-1.066;2024-01-27T04:27:38;4.70;99.90
35559;DHT22;21661;50.794;-1.066;2024-01-27T04:30:06;4.70;99.90
35559;DHT22;21661;50.794;-1.066;2024-01-27T04:32:32;4.70;99.90
35559;DHT22;21661;50.794;-1.066;2024-01-27T04:34:58;4.60;99.90
35559;DHT22;21661;50.794;-1.066;2024-01-27T04:37:23;4.60;99.90
35559;DHT22;21661;50.794;-1.066;2024-01-27T04:39:49;4.70;99.90
35559;DHT22;21661;50.794;-1.066;2024-01-27T04:42:14;4.80;99.90
35559;DHT22;21661;50.794;-1.066;2024-01-27T04:44:41;4.70;99.90
35559;DHT22;21661;50.794;-1.066;2024-01-27T04:47:07;4.70;99.90
35559;DHT22;21661;50.794;-1.066;2024-01-27T04:49:33;4.70;99.90
35559;DHT22;21661;50.794;-1.066;2024-01-27T04:51:59;4.70;99.90
35559;DHT22;21661;50.794;-1.066;2024-01-27T04:54:24;4.80;99.90
35559;DHT22;21661;50.794;-1.066;2024-01-27T04:56:50;4.80;99.90
35559;DHT22;21661;50.794;-1.066;2024-01-27T04:59:16;4.80;99.90
35559;DHT22;21661;50.794;-1.066;2024-01-27T05:01:45;4.80;99.90
35559;DHT22;21661;50.794;-1.066;2024-01-27T05:04:11;4.80;99.90
35559;DHT22;21661;50.794;-1.066;2024-01-27T05:06:37;4.80;99.90
35559;DHT22;21661;50.794;-1.066;2024-01-27T05:09:04;4.80;99.90
35559;DHT22;21661;50.794;-1.066;2024-01-27T05:11:32;4.80;99.90
35559;DHT22;21661;50.794;-1.066;2024-01-27T05:14:00;4.80;99.90
35559;DHT22;21661;50.794;-1.066;2024-01-27T05:16:27;4.80;99.90
35559;DHT22;21661;50.794;-1.066;2024-01-27T05:18:53;4.70;99.90
35559;DHT22;21661;50.794;-1.066;2024-01-27T05:21:19;4.70;99.90
35559;DHT22;21661;50.794;-1.066;2024-01-27T05:23:45;4.70;99.90
35559;DHT22;21661;50.794;-1.066;2024-01-27T05:26:10;4.60;99.90
35559;DHT22;21661;50.794;-1.066;2024-01-27T05:28:37;4.60;99.90
35559;DHT22;21661;50.794;-1.066;2024-01-27T05:31:06;4.50;99.90
35559;DHT22;21661;50.794;-1.066;2024-01-27T05:33:32;4.50;99.90
35559;DHT22;21661;50.794;-1.066;2024-01-27T05:35:57;4.50;99.90
35559;DHT22;21661;50.794;-1.066;2024-01-27T05:38:23;4.50;99.90
35559;DHT22;21661;50.794;-1.066;2024-01-27T05:40:49;4.50;99.90
35559;DHT22;21661;50.794;-1.066;2024-01-27T05:43:16;4.40;99.90
35559;DHT22;21661;50.794;-1.066;2024-01-27T05:45:41;4.50;99.90
35559;DHT22;21661;50.794;-1.066;2024-01-27T05:48:07;4.50;99.90
35559;DHT22;21661;50.794;-1.066;2024-01-27T05:50:33;4.50;99.90
35559;DHT22;21661;50.794;-1.066;2024-01-27T05:52:59;4.50;99.90
35559;DHT22;21661;50.794;-1.066;2024-01-27T05:55:25;4.50;99.90
35559;DHT22;21661;50.794;-1.066;2024-01-27T05:57:51;4.40;99.90
35559;DHT22;21661;50.794;-1.066;2024-01-27T06:00:16;4.40;99.90
35559;DHT22;21661;50.794;-1.066;2024-01-27T06:02:42;4.50;99.90
35559;DHT22;21661;50.794;-1.066;2024-01-27T06:05:08;4.50;99.90
35559;DHT22;21661;50.794;-1.066;2024-01-27T06:07:37;4.50;99.90
35559;DHT22;21661;50.794;-1.066;2024-01-27T06:10:03;4.50;99.90
35559;DHT22;21661;50.794;-1.066;2024-01-27T06:12:29;4.50;99.90
35559;DHT22;21661;50.794;-1.066;2024-01-27T06:14:54;4.60;99.90
35559;DHT22;21661;50.794;-1.066;2024-01-27T06:17:20;4.60;99.90
35559;DHT22;21661;50.794;-1.066;2024-01-27T06:19:45;4.70;99.90
35559;DHT22;21661;50.794;-1.066;2024-01-27T06:22:11;4.60;99.90
35559;DHT22;21661;50.794;-1.066;2024-01-27T06:24:42;4.60;99.90
35559;DHT22;21661;50.794;-1.066;2024-01-27T06:27:09;4.70;99.90
35559;DHT22;21661;50.794;-1.066;2024-01-27T06:29:34;4.70;99.90
35559;DHT22;21661;50.794;-1.066;2024-01-27T06:32:00;4.70;99.90
35559;DHT22;21661;50.794;-1.066;2024-01-27T06:34:25;4.70;99.90
35559;DHT22;21661;50.794;-1.066;2024-01-27T06:36:51;4.70;99.90
35559;DHT22;21661;50.794;-1.066;2024-01-27T06:39:17;4.70;99.90
35559;DHT22;21661;50.794;-1.066;2024-01-27T06:41:42;4.70;99.90
35559;DHT22;21661;50.794;-1.066;2024-01-27T06:44:08;4.70;99.90
35559;DHT22;21661;50.794;-1.066;2024-01-27T06:46:34;4.70;99.90
35559;DHT22;21661;50.794;-1.066;2024-01-27T06:48:59;4.70;99.90
35559;DHT22;21661;50.794;-1.066;2024-01-27T06:51:25;4.70;99.90
35559;DHT22;21661;50.794;-1.066;2024-01-27T06:53:50;4.70;99.90
35559;DHT22;21661;50.794;-1.066;2024-01-27T06:56:16;4.70;99.90
35559;DHT22;21661;50.794;-1.066;2024-01-27T06:58:42;4.70;99.90
35559;DHT22;21661;50.794;-1.066;2024-01-27T07:01:07;4.70;99.90
35559;DHT22;21661;50.794;-1.066;2024-01-27T07:03:33;4.60;99.90
35559;DHT22;21661;50.794;-1.066;2024-01-27T07:05:59;4.60;99.90
35559;DHT22;21661;50.794;-1.066;2024-01-27T07:08:26;4.60;99.90
35559;DHT22;21661;50.794;-1.066;2024-01-27T07:10:52;4.60;99.90
35559;DHT22;21661;50.794;-1.066;2024-01-27T07:13:18;4.60;99.90
35559;DHT22;21661;50.794;-1.066;2024-01-27T07:15:43;4.70;99.90
35559;DHT22;21661;50.794;-1.066;2024-01-27T07:18:09;4.70;99.90
35559;DHT22;21661;50.794;-1.066;2024-01-27T07:20:36;4.70;99.90
35559;DHT22;21661;50.794;-1.066;2024-01-27T07:23:01;4.80;99.90
35559;DHT22;21661;50.794;-1.066;2024-01-27T07:25:27;4.80;99.90
35559;DHT22;21661;50.794;-1.066;2024-01-27T07:27:54;4.80;99.90
35559;DHT22;21661;50.794;-1.066;2024-01-27T07:30:20;4.80;99.90
35559;DHT22;21661;50.794;-1.066;2024-01-27T07:32:46;4.80;99.90
35559;DHT22;21661;50.794;-1.066;2024-01-27T07:35:11;4.80;99.90
35559;DHT22;21661;50.794;-1.066;2024-01-27T07:37:37;4.80;99.90
35559;DHT22;21661;50.794;-1.066;2024-01-27T07:40:03;4.70;99.90
35559;DHT22;21661;50.794;-1.066;2024-01-27T07:42:29;4.80;99.90
35559;DHT22;21661;50.794;-1.066;2024-01-27T07:44:55;4.60;99.90
35559;DHT22;21661;50.794;-1.066;2024-01-27T07:47:20;4.80;99.90
35559;DHT22;21661;50.794;-1.066;2024-01-27T07:49:46;4.80;99.90
35559;DHT22;21661;50.794;-1.066;2024-01-27T07:52:14;4.90;99.90
35559;DHT22;21661;50.794;-1.066;2024-01-27T07:54:39;4.90;99.90
35559;DHT22;21661;50.794;-1.066;2024-01-27T07:57:05;4.80;99.90
35559;DHT22;21661;50.794;-1.066;2024-01-27T07:59:31;4.80;99.90
35559;DHT22;21661;50.794;-1.066;2024-01-27T08:01:58;4.90;99.90
35559;DHT22;21661;50.794;-1.066;2024-01-27T08:04:24;4.90;99.90
35559;DHT22;21661;50.794;-1.066;2024-01-27T08:06:50;4.90;99.90
35559;DHT22;21661;50.794;-1.066;2024-01-27T08:09:16;5.00;99.90
35559;DHT22;21661;50.794;-1.066;2024-01-27T08:11:43;5.00;99.90
35559;DHT22;21661;50.794;-1.066;2024-01-27T08:14:09;5.00;99.90
35559;DHT22;21661;50.794;-1.066;2024-01-27T08:16:35;5.00;99.90
35559;DHT22;21661;50.794;-1.066;2024-01-27T08:19:00;5.00;99.90
35559;DHT22;21661;50.794;-1.066;2024-01-27T08:21:26;5.00;99.90
35559;DHT22;21661;50.794;-1.066;2024-01-27T08:23:53;5.00;99.90
35559;DHT22;21661;50.794;-1.066;2024-01-27T08:26:18;5.10;99.90
35559;DHT22;21661;50.794;-1.066;2024-01-27T08:28:46;5.10;99.90
35559;DHT22;21661;50.794;-1.066;2024-01-27T08:31:12;5.20;99.90
35559;DHT22;21661;50.794;-1.066;2024-01-27T08:33:38;5.20;99.90
35559;DHT22;21661;50.794;-1.066;2024-01-27T08:36:04;5.30;99.90
35559;DHT22;21661;50.794;-1.066;2024-01-27T08:38:29;5.30;99.90
35559;DHT22;21661;50.794;-1.066;2024-01-27T08:40:55;5.30;99.90
35559;DHT22;21661;50.794;-1.066;2024-01-27T08:43:20;5.30;99.90
35559;DHT22;21661;50.794;-1.066;2024-01-27T08:45:46;5.40;99.90
35559;DHT22;21661;50.794;-1.066;2024-01-27T08:48:12;5.50;99.90
35559;DHT22;21661;50.794;-1.066;2024-01-27T08:50:38;5.50;99.90
35559;DHT22;21661;50.794;-1.066;2024-01-27T08:53:04;5.60;99.90
35559;DHT22;21661;50.794;-1.066;2024-01-27T08:55:29;5.60;99.90
35559;DHT22;21661;50.794;-1.066;2024-01-27T08:57:56;5.70;99.90
35559;DHT22;21661;50.794;-1.066;2024-01-27T09:00:22;5.70;99.90
35559;DHT22;21661;50.794;-1.066;2024-01-27T09:02:47;5.80;99.90
35559;DHT22;21661;50.794;-1.066;2024-01-27T09:05:13;5.80;99.90
35559;DHT22;21661;50.794;-1.066;2024-01-27T09:07:39;5.90;99.90
35559;DHT22;21661;50.794;-1.066;2024-01-27T09:10:05;6.00;99.90
35559;DHT22;21661;50.794;-1.066;2024-01-27T09:12:32;6.10;99.90
35559;DHT22;21661;50.794;-1.066;2024-01-27T09:14:58;6.30;99.90
35559;DHT22;21661;50.794;-1.066;2024-01-27T09:17:24;6.50;99.90
35559;DHT22;21661;50.794;-1.066;2024-01-27T09:19:49;6.70;99.90
35559;DHT22;21661;50.794;-1.066;2024-01-27T09:22:16;6.80;99.90
35559;DHT22;21661;50.794;-1.066;2024-01-27T09:24:42;7.00;99.90
35559;DHT22;21661;50.794;-1.066;2024-01-27T09:27:07;7.20;99.90
35559;DHT22;21661;50.794;-1.066;2024-01-27T09:29:33;7.30;99.90
35559;DHT22;21661;50.794;-1.066;2024-01-27T09:31:58;7.40;99.90
35559;DHT22;21661;50.794;-1.066;2024-01-27T09:34:24;7.40;99.90
35559;DHT22;21661;50.794;-1.066;2024-01-27T09:36:50;7.50;99.90
35559;DHT22;21661;50.794;-1.066;2024-01-27T09:39:15;7.60;99.90
35559;DHT22;21661;50.794;-1.066;2024-01-27T09:41:42;7.70;99.90
35559;DHT22;21661;50.794;-1.066;2024-01-27T09:44:08;7.80;99.90
35559;DHT22;21661;50.794;-1.066;2024-01-27T09:46:37;7.90;99.90
35559;DHT22;21661;50.794;-1.066;2024-01-27T09:49:03;7.90;99.90
35559;DHT22;21661;50.794;-1.066;2024-01-27T09:51:29;7.90;99.90
35559;DHT22;21661;50.794;-1.066;2024-01-27T09:53:55;8.00;99.90
35559;DHT22;21661;50.794;-1.066;2024-01-27T09:56:22;8.00;99.90
35559;DHT22;21661;50.794;-1.066;2024-01-27T09:58:49;8.00;99.90
35559;DHT22;21661;50.794;-1.066;2024-01-27T10:01:16;8.00;99.90
35559;DHT22;21661;50.794;-1.066;2024-01-27T10:03:46;8.10;99.90
35559;DHT22;21661;50.794;-1.066;2024-01-27T10:06:12;8.10;99.90
35559;DHT22;21661;50.794;-1.066;2024-01-27T10:08:38;8.10;99.90
35559;DHT22;21661;50.794;-1.066;2024-01-27T10:11:08;8.10;99.90
35559;DHT22;21661;50.794;-1.066;2024-01-27T10:13:35;8.20;99.90
35559;DHT22;21661;50.794;-1.066;2024-01-27T10:16:07;8.20;99.90
35559;DHT22;21661;50.794;-1.066;2024-01-27T10:18:34;8.20;99.90
35559;DHT22;21661;50.794;-1.066;2024-01-27T10:21:00;8.20;99.90
35559;DHT22;21661;50.794;-1.066;2024-01-27T10:23:26;8.20;99.90
35559;DHT22;21661;50.794;-1.066;2024-01-27T10:25:52;8.20;99.90
35559;DHT22;21661;50.794;-1.066;2024-01-27T10:28:18;8.20;99.90
35559;DHT22;21661;50.794;-1.066;2024-01-27T10:30:45;8.20;99.90
35559;DHT22;21661;50.794;-1.066;2024-01-27T10:33:11;8.30;99.90
35559;DHT22;21661;50.794;-1.066;2024-01-27T10:35:41;8.30;99.90
35559;DHT22;21661;50.794;-1.066;2024-01-27T10:38:07;8.30;99.90
35559;DHT22;21661;50.794;-1.066;2024-01-27T10:40:32;8.40;99.90
35559;DHT22;21661;50.794;-1.066;2024-01-27T10:43:06;8.50;99.90
35559;DHT22;21661;50.794;-1.066;2024-01-27T10:45:37;8.50;99.90
35559;DHT22;21661;50.794;-1.066;2024-01-27T10:48:04;8.50;99.90
35559;DHT22;21661;50.794;-1.066;2024-01-27T10:50:33;8.60;99.90
35559;DHT22;21661;50.794;-1.066;2024-01-27T10:53:01;8.70;99.90
35559;DHT22;21661;50.794;-1.066;2024-01-27T10:55:29;8.60;99.90
35559;DHT22;21661;50.794;-1.066;2024-01-27T10:57:56;8.70;99.90
35559;DHT22;21661;50.794;-1.066;2024-01-27T11:00:24;8.60;99.90
35559;DHT22;21661;50.794;-1.066;2024-01-27T11:02:51;8.70;99.90
35559;DHT22;21661;50.794;-1.066;2024-01-27T11:05:19;8.60;99.90
35559;DHT22;21661;50.794;-1.066;2024-01-27T11:07:46;8.60;99.90
35559;DHT22;21661;50.794;-1.066;2024-01-27T11:10:12;8.60;99.90
35559;DHT22;21661;50.794;-1.066;2024-01-27T11:12:38;8.60;99.90
35559;DHT22;21661;50.794;-1.066;2024-01-27T11:15:06;8.60;99.90
35559;DHT22;21661;50.794;-1.066;2024-01-27T11:17:41;8.60;99.90
35559;DHT22;21661;50.794;-1.066;2024-01-27T11:20:10;8.60;99.90
35559;DHT22;21661;50.794;-1.066;2024-01-27T11:22:42;8.60;99.90
35559;DHT22;21661;50.794;-1.066;2024-01-27T11:27:38;8.60;99.90
35559;DHT22;21661;50.794;-1.066;2024-01-27T11:30:05;8.60;99.90
35559;DHT22;21661;50.794;-1.066;2024-01-27T11:32:31;8.60;99.90
35559;DHT22;21661;50.794;-1.066;2024-01-27T11:34:56;8.60;99.90
35559;DHT22;21661;50.794;-1.066;2024-01-27T11:37:23;8.70;99.90
35559;DHT22;21661;50.794;-1.066;2024-01-27T11:39:51;8.80;99.90
35559;DHT22;21661;50.794;-1.066;2024-01-27T11:42:18;8.80;99.90
35559;DHT22;21661;50.794;-1.066;2024-01-27T11:44:44;8.80;99.90
35559;DHT22;21661;50.794;-1.066;2024-01-27T11:47:17;8.90;99.90
35559;DHT22;21661;50.794;-1.066;2024-01-27T11:49:53;8.90;99.90
35559;DHT22;21661;50.794;-1.066;2024-01-27T11:52:20;8.90;99.90
35559;DHT22;21661;50.794;-1.066;2024-01-27T11:54:45;9.00;99.90
35559;DHT22;21661;50.794;-1.066;2024-01-27T11:57:11;9.10;99.90
35559;DHT22;21661;50.794;-1.066;2024-01-27T11:59:36;9.00;99.90
35559;DHT22;21661;50.794;-1.066;2024-01-27T12:02:02;9.00;99.90
35559;DHT22;21661;50.794;-1.066;2024-01-27T12:04:28;9.00;99.90
35559;DHT22;21661;50.794;-1.066;2024-01-27T12:06:54;9.10;99.90
35559;DHT22;21661;50.794;-1.066;2024-01-27T12:09:20;9.10;99.90
35559;DHT22;21661;50.794;-1.066;2024-01-27T12:11:47;9.00;99.90
35559;DHT22;21661;50.794;-1.066;2024-01-27T12:14:13;9.00;99.90
35559;DHT22;21661;50.794;-1.066;2024-01-27T12:16:39;9.10;99.90
35559;DHT22;21661;50.794;-1.066;2024-01-27T12:19:05;9.10;99.90
35559;DHT22;21661;50.794;-1.066;2024-01-27T12:21:30;9.10;99.90
35559;DHT22;21661;50.794;-1.066;2024-01-27T12:23:58;9.10;99.90
35559;DHT22;21661;50.794;-1.066;2024-01-27T12:26:28;9.20;99.90
35559;DHT22;21661;50.794;-1.066;2024-01-27T12:28:55;9.10;99.90
35559;DHT22;21661;50.794;-1.066;2024-01-27T12:31:22;9.10;99.90
35559;DHT22;21661;50.794;-1.066;2024-01-27T12:33:52;9.10;99.90
35559;DHT22;21661;50.794;-1.066;2024-01-27T12:36:19;9.20;99.90
35559;DHT22;21661;50.794;-1.066;2024-01-27T12:38:58;9.20;99.90
35559;DHT22;21661;50.794;-1.066;2024-01-27T12:41:27;9.20;99.90
35559;DHT22;21661;50.794;-1.066;2024-01-27T12:43:54;9.20;99.90
35559;DHT22;21661;50.794;-1.066;2024-01-27T12:46:20;9.20;99.90
35559;DHT22;21661;50.794;-1.066;2024-01-27T12:48:46;9.20;99.90
35559;DHT22;21661;50.794;-1.066;2024-01-27T12:51:12;9.20;99.90
35559;DHT22;21661;50.794;-1.066;2024-01-27T12:53:40;9.20;99.90
35559;DHT22;21661;50.794;-1.066;2024-01-27T12:56:10;9.20;99.90
35559;DHT22;21661;50.794;-1.066;2024-01-27T12:58:37;9.20;99.90
35559;DHT22;21661;50.794;-1.066;2024-01-27T13:01:03;9.20;99.90
35559;DHT22;21661;50.794;-1.066;2024-01-27T13:03:29;9.30;99.90
35559;DHT22;21661;50.794;-1.066;2024-01-27T13:05:56;9.30;99.90
35559;DHT22;21661;50.794;-1.066;2024-01-27T13:08:22;9.30;99.90
35559;DHT22;21661;50.794;-1.066;2024-01-27T13:10:49;9.30;99.90
35559;DHT22;21661;50.794;-1.066;2024-01-27T13:13:15;9.40;99.90
35559;DHT22;21661;50.794;-1.066;2024-01-27T13:15:40;9.40;99.90
35559;DHT22;21661;50.794;-1.066;2024-01-27T13:18:06;9.30;99.90
35559;DHT22;21661;50.794;-1.066;2024-01-27T13:20:32;9.30;99.90
35559;DHT22;21661;50.794;-1.066;2024-01-27T13:22:58;9.30;99.90
35559;DHT22;21661;50.794;-1.066;2024-01-27T13:25:24;9.40;99.90
35559;DHT22;21661;50.794;-1.066;2024-01-27T13:27:50;9.40;99.90
35559;DHT22;21661;50.794;-1.066;2024-01-27T13:30:16;9.50;99.90
35559;DHT22;21661;50.794;-1.066;2024-01-27T13:32:43;9.50;99.90
35559;DHT22;21661;50.794;-1.066;2024-01-27T13:35:09;9.50;99.90
35559;DHT22;21661;50.794;-1.066;2024-01-27T13:37:35;9.50;99.90
35559;DHT22;21661;50.794;-1.066;2024-01-27T13:40:01;9.60;99.90
35559;DHT22;21661;50.794;-1.066;2024-01-27T13:42:26;9.60;99.90
35559;DHT22;21661;50.794;-1.066;2024-01-27T13:44:52;9.70;99.90
35559;DHT22;21661;50.794;-1.066;2024-01-27T13:47:18;9.70;99.90
35559;DHT22;21661;50.794;-1.066;2024-01-27T13:49:44;9.60;99.90
35559;DHT22;21661;50.794;-1.066;2024-01-27T13:52:10;9.60;99.90
35559;DHT22;21661;50.794;-1.066;2024-01-27T13:54:37;9.60;99.90
35559;DHT22;21661;50.794;-1.066;2024-01-27T13:57:03;9.70;99.90
35559;DHT22;21661;50.794;-1.066;2024-01-27T13:59:29;9.70;99.90
35559;DHT22;21661;50.794;-1.066;2024-01-27T14:01:54;9.70;99.90
35559;DHT22;21661;50.794;-1.066;2024-01-27T14:04:22;9.70;99.90
35559;DHT22;21661;50.794;-1.066;2024-01-27T14:06:52;9.70;99.90
35559;DHT22;21661;50.794;-1.066;2024-01-27T14:09:19;9.70;99.90
35559;DHT22;21661;50.794;-1.066;2024-01-27T14:11:46;9.60;99.90
35559;DHT22;21661;50.794;-1.066;2024-01-27T14:14:12;9.60;99.90
35559;DHT22;21661;50.794;-1.066;2024-01-27T14:16:38;9.50;99.90
35559;DHT22;21661;50.794;-1.066;2024-01-27T14:19:04;9.50;99.90
35559;DHT22;21661;50.794;-1.066;2024-01-27T14:21:31;9.50;99.90
35559;DHT22;21661;50.794;-1.066;2024-01-27T14:23:57;9.50;99.90
35559;DHT22;21661;50.794;-1.066;2024-01-27T14:26:28;9.50;99.90
35559;DHT22;21661;50.794;-1.066;2024-01-27T14:28:54;9.50;99.90
35559;DHT22;21661;50.794;-1.066;2024-01-27T14:31:20;9.60;99.90
35559;DHT22;21661;50.794;-1.066;2024-01-27T14:33:46;9.60;99.90
35559;DHT22;21661;50.794;-1.066;2024-01-27T14:36:12;9.60;99.90
35559;DHT22;21661;50.794;-1.066;2024-01-27T14:38:38;9.60;99.90
35559;DHT22;21661;50.794;-1.066;2024-01-27T14:41:04;9.60;99.90
35559;DHT22;21661;50.794;-1.066;2024-01-27T14:43:31;9.60;99.90
35559;DHT22;21661;50.794;-1.066;2024-01-27T14:45:56;9.60;99.90
35559;DHT22;21661;50.794;-1.066;2024-01-27T14:48:22;9.60;99.90
35559;DHT22;21661;50.794;-1.066;2024-01-27T14:50:48;9.50;99.90
35559;DHT22;21661;50.794;-1.066;2024-01-27T14:53:18;9.50;99.90
35559;DHT22;21661;50.794;-1.066;2024-01-27T14:55:44;9.40;99.90
35559;DHT22;21661;50.794;-1.066;2024-01-27T14:58:10;9.40;99.90
35559;DHT22;21661;50.794;-1.066;2024-01-27T15:00:36;9.40;99.90
35559;DHT22;21661;50.794;-1.066;2024-01-27T15:03:05;9.40;99.90
35559;DHT22;21661;50.794;-1.066;2024-01-27T15:05:31;9.40;99.90
35559;DHT22;21661;50.794;-1.066;2024-01-27T15:08:02;9.40;99.90
35559;DHT22;21661;50.794;-1.066;2024-01-27T15:10:27;9.40;99.90
35559;DHT22;21661;50.794;-1.066;2024-01-27T15:12:53;9.40;99.90
35559;DHT22;21661;50.794;-1.066;2024-01-27T15:15:19;9.40;99.90
35559;DHT22;21661;50.794;-1.066;2024-01-27T15:17:45;9.40;99.90
35559;DHT22;21661;50.794;-1.066;2024-01-27T15:20:11;9.40;99.90
35559;DHT22;21661;50.794;-1.066;2024-01-27T15:22:37;9.40;99.90
35559;DHT22;21661;50.794;-1.066;2024-01-27T15:25:04;9.30;99.90